General Francisco J Mujica International Airport
MMMM : now visible

Airfield :











YOU CAN JOIN US ON...

 
LOGIN :

Register | Disclaimer

   EN    FR    IT 

 









Legend :    VFR   Marginal VFR   IFR   Intensive IFR   Very Intensive IFR
Visi :
Ceiling :
>= 8 km
>= 3000ft
5 to 8 km
1000 to 3000 ft
1500m to 5 km
500 to 1000 ft
800 to 1500m
200 to 500 ft
< 800m
< 200 ft
Symbols :   Thunderstorms  Fog  Heavy snow  Heavy precipitations  Wind > 20 kt







- Airport Elevation : 6033 ft
- IATA code : MLM


MMMM - General Francisco J Mujica International

CURRENT METAR :
  • 220649Z 00000KT 7SM SCT090 22/08 A3013 RMK 8/030 HZY SC CI

EXPIRED METARs :
  • 220547Z 23004KT 7SM FEW030 20/07 A3011 RMK SLP027 52032 957 8/500 HZY AC
  • 220446Z 22006KT 7SM FEW030 22/08 A3011 RMK 8/500 HZY AC

TAF TAF MMMM
Valid from the 22 at 06:00 until the 23 at 12:00 UTC


220430Z 2206/2312 22005KT 6SM HZ SCT040
FM221800 19010KT 6SM HZ SCT040 BKN250
FM230600 00000KT 6SM HZ SCT030
MMFR FIR / North America



MET'MAP, your aeronautical weather chart ! - Copyright ORBIFLY December 2007 - Disclaimer

ORBIFLY MET'MAP TEAM :

Programming & Development : Alexandra Zaïnal
Concept & Development : Baudouin d'Aumeries
Co-Development & Prog : Marc-Olivier Méhu
Technical & hardware support : Manuel Goepfert

Contact : metmap@orbifly.com




SOURCES & CREDITS :

   NOAA       Earth
Advisory